Dalaman International Airport Dalaman TR
ICAO: LTBS
IATA: DLM
Category: Large
Scheduled Services: Yes

Elevation: 20 ft
TransAlt. 12000 ft.

Airport Communications:
APP:119.225
ATIS:127.35
GND:121.9
TWR:118.5

LTBS Zoom In..

If you have problems with the map follow the link
https://www.worldairports.se/pages/airport.php?
ICAO=LTBS

Runways:

(A) RW 01 length 9843 ft width 148 ft
ILS 110.10 / hdg 12

(B) RW 19 length 9843 ft width 148 ft
---- / hdg 192

Location; LTBS
Day. 13 / Time. 20.50 Zulu
* QNH: 1021
* Temperature: 08° c. 46.4°f.
* Wind from: 020° Speed 08 kn.
Dewpoint: 06° c.
Visibility: 10 km or more.
Clouds: Broken 3000 ft.
Clouds: Broken 9000 ft.
Conditions: Light Rain Showers.

LTBS 132050Z 02008KT 9999 -SHRA BKN030 BKN090 08/06 Q1021 TEMPO FM2100 21020G30KT 4000 TSRA


Wind From 020°
Speed 08 kn.

 
 
jpsmedia.com for Web Design worldairports.se 2018   terms of use